EIN988 KMSP-EIDW
Flight info
| Callsign | EIN988 |
|---|---|
| Flight time | N/A |
| Altitude | 35000 |
| Route | WLSTN7 WLSTN DCT SSM DCT ROUND DCT TEALS DCT ALSOP DCT AVUTI/M079F350 DCT 59N050W 60N040W 60N030W 59N020W DCT AGORI/N0453F350 DCT OSBOX DCT REVNU DCT OLAPO OLAPO3R |
| Aircraft | A21N/M-SDE2E3FGHIRWXY/LB1 |
Departure
| Time | N/A |
|---|---|
| Airport | Minneapolis–Saint Paul International Airport / Wold–Chamberlain Field (KMSP) |
Arrival
| Time | 2026-05-04 19:42 |
|---|---|
| Airport | Dublin Airport (EIDW) |
| Time | Latitude | Longitude | Altitude | Speed | Heading |
|---|---|---|---|---|---|
| 2026-05-04 17:23 | 59.66189 | -44.39601 | 35018 ft | 451 kts | 79° |
| 2026-05-04 17:24 | 59.66781 | -44.33331 | 35018 ft | 451 kts | 79° |
| 2026-05-04 17:25 | 59.69030 | -44.09132 | 35019 ft | 451 kts | 79° |
| 2026-05-04 17:26 | 59.71281 | -43.84415 | 35018 ft | 451 kts | 79° |
| 2026-05-04 17:27 | 59.74071 | -43.53016 | 35018 ft | 451 kts | 79° |
| 2026-05-04 17:28 | 59.76246 | -43.27890 | 35018 ft | 451 kts | 81° |
| 2026-05-04 17:29 | 59.79416 | -42.90134 | 35018 ft | 451 kts | 81° |
| 2026-05-04 17:31 | 59.81967 | -42.58740 | 35018 ft | 451 kts | 81° |
| 2026-05-04 17:32 | 59.84447 | -42.27254 | 35018 ft | 451 kts | 81° |
| 2026-05-04 17:33 | 59.86381 | -42.01939 | 35019 ft | 451 kts | 81° |
| 2026-05-04 17:34 | 59.88261 | -41.76697 | 35018 ft | 451 kts | 81° |
| 2026-05-04 17:35 | 59.90007 | -41.51902 | 35077 ft | 444 kts | 73° |
| 2026-05-04 17:36 | 59.90789 | -41.41269 | 35108 ft | 445 kts | 73° |
| 2026-05-04 17:36 | 59.91680 | -41.28787 | 35131 ft | 444 kts | 73° |
| 2026-05-04 17:37 | 59.92543 | -41.16352 | 35142 ft | 444 kts | 74° |
| 2026-05-04 17:37 | 59.93392 | -41.03932 | 35146 ft | 444 kts | 74° |
| 2026-05-04 17:38 | 59.94241 | -40.91432 | 35146 ft | 445 kts | 75° |
| 2026-05-04 17:38 | 59.95071 | -40.79007 | 35146 ft | 446 kts | 76° |
| 2026-05-04 17:39 | 59.96288 | -40.60176 | 35146 ft | 447 kts | 76° |
| 2026-05-04 17:39 | 59.97087 | -40.47613 | 35146 ft | 447 kts | 76° |
| 2026-05-04 17:40 | 59.97871 | -40.35128 | 35146 ft | 447 kts | 76° |
| 2026-05-04 17:40 | 59.98647 | -40.22547 | 35147 ft | 448 kts | 77° |
| 2026-05-04 17:41 | 59.99397 | -40.10175 | 35147 ft | 448 kts | 77° |
| 2026-05-04 17:41 | 60.00101 | -39.97523 | 35146 ft | 449 kts | 79° |
| 2026-05-04 17:42 | 60.00586 | -39.84850 | 35147 ft | 450 kts | 79° |
| 2026-05-04 17:42 | 60.01022 | -39.72783 | 35147 ft | 450 kts | 79° |
| 2026-05-04 17:43 | 60.01472 | -39.60000 | 35146 ft | 450 kts | 79° |
| 2026-05-04 17:43 | 60.01913 | -39.47158 | 35165 ft | 450 kts | 79° |
| 2026-05-04 17:44 | 60.02338 | -39.34423 | 35238 ft | 449 kts | 80° |
| 2026-05-04 17:44 | 60.02747 | -39.21719 | 35321 ft | 449 kts | 80° |
| 2026-05-04 17:45 | 60.03147 | -39.08963 | 35365 ft | 449 kts | 80° |
| 2026-05-04 17:45 | 60.03537 | -38.96334 | 35382 ft | 450 kts | 81° |
| 2026-05-04 17:46 | 60.03915 | -38.83556 | 35387 ft | 443 kts | 81° |
| 2026-05-04 17:46 | 60.04268 | -38.71008 | 35391 ft | 441 kts | 81° |
| 2026-05-04 17:47 | 60.04612 | -38.58501 | 35391 ft | 441 kts | 81° |
| 2026-05-04 17:47 | 60.04945 | -38.46003 | 35391 ft | 441 kts | 81° |
| 2026-05-04 17:48 | 60.05265 | -38.33513 | 35391 ft | 441 kts | 82° |
| 2026-05-04 17:48 | 60.05572 | -38.21070 | 35392 ft | 441 kts | 82° |
| 2026-05-04 17:49 | 60.05869 | -38.08530 | 35393 ft | 441 kts | 82° |
| 2026-05-04 17:49 | 60.06155 | -37.95999 | 35392 ft | 441 kts | 82° |
| 2026-05-04 17:50 | 60.06428 | -37.83564 | 35392 ft | 442 kts | 82° |
| 2026-05-04 17:50 | 60.06692 | -37.70964 | 35392 ft | 442 kts | 82° |
| 2026-05-04 17:51 | 60.06943 | -37.58402 | 35392 ft | 442 kts | 82° |
| 2026-05-04 17:51 | 60.07182 | -37.45865 | 35391 ft | 442 kts | 82° |
| 2026-05-04 17:52 | 60.07410 | -37.33252 | 35391 ft | 442 kts | 83° |
| 2026-05-04 17:52 | 60.07624 | -37.20711 | 35393 ft | 443 kts | 83° |
| 2026-05-04 17:53 | 60.07829 | -37.08162 | 35392 ft | 443 kts | 83° |
| 2026-05-04 17:53 | 60.08024 | -36.95570 | 35392 ft | 444 kts | 84° |
| 2026-05-04 17:54 | 60.08202 | -36.82994 | 35392 ft | 444 kts | 84° |
| 2026-05-04 17:54 | 60.08368 | -36.70352 | 35392 ft | 444 kts | 84° |
| 2026-05-04 17:55 | 60.08524 | -36.57754 | 35392 ft | 444 kts | 84° |
| 2026-05-04 17:55 | 60.08669 | -36.45071 | 35391 ft | 444 kts | 84° |
| 2026-05-04 17:56 | 60.08801 | -36.32440 | 35391 ft | 444 kts | 84° |
| 2026-05-04 17:56 | 60.08921 | -36.19750 | 35393 ft | 445 kts | 84° |
| 2026-05-04 17:57 | 60.09029 | -36.07035 | 35393 ft | 445 kts | 84° |
| 2026-05-04 17:57 | 60.09125 | -35.94361 | 35392 ft | 445 kts | 84° |
| 2026-05-04 17:58 | 60.09209 | -35.81783 | 35392 ft | 445 kts | 84° |
| 2026-05-04 17:58 | 60.09282 | -35.69114 | 35392 ft | 445 kts | 84° |
| 2026-05-04 17:59 | 60.09341 | -35.56507 | 35391 ft | 445 kts | 84° |
| 2026-05-04 18:00 | 60.09409 | -35.37573 | 35391 ft | 445 kts | 84° |
| 2026-05-04 18:00 | 60.09438 | -35.24903 | 35392 ft | 445 kts | 85° |
| 2026-05-04 18:01 | 60.09455 | -35.12275 | 35393 ft | 445 kts | 85° |
| 2026-05-04 18:01 | 60.09462 | -34.99614 | 35392 ft | 445 kts | 85° |
| 2026-05-04 18:02 | 60.09453 | -34.80564 | 35391 ft | 450 kts | 86° |
| 2026-05-04 18:02 | 60.09427 | -34.67710 | 35392 ft | 451 kts | 86° |
| 2026-05-04 18:03 | 60.09387 | -34.54913 | 35391 ft | 451 kts | 86° |
| 2026-05-04 18:03 | 60.09336 | -34.42080 | 35391 ft | 451 kts | 86° |
| 2026-05-04 18:04 | 60.09274 | -34.29327 | 35392 ft | 451 kts | 87° |
| 2026-05-04 18:05 | 60.09157 | -34.10068 | 35393 ft | 451 kts | 87° |
| 2026-05-04 18:05 | 60.09063 | -33.97161 | 35311 ft | 452 kts | 87° |
| 2026-05-04 18:06 | 60.08900 | -33.77857 | 35194 ft | 453 kts | 87° |
| 2026-05-04 18:06 | 60.08774 | -33.64918 | 35165 ft | 454 kts | 87° |
| 2026-05-04 18:07 | 60.08637 | -33.52020 | 35154 ft | 454 kts | 87° |
| 2026-05-04 18:07 | 60.08486 | -33.39093 | 35149 ft | 454 kts | 87° |
| 2026-05-04 18:08 | 60.08322 | -33.26082 | 35149 ft | 454 kts | 88° |
| 2026-05-04 18:08 | 60.08145 | -33.13081 | 35149 ft | 454 kts | 88° |
| 2026-05-04 18:09 | 60.07752 | -32.86866 | 35148 ft | 456 kts | 88° |
| 2026-05-04 18:10 | 60.07534 | -32.73759 | 35155 ft | 457 kts | 88° |
| 2026-05-04 18:10 | 60.07304 | -32.60717 | 35179 ft | 457 kts | 88° |
| 2026-05-04 18:11 | 60.07061 | -32.47620 | 35204 ft | 457 kts | 88° |
| 2026-05-04 18:11 | 60.06807 | -32.34602 | 35218 ft | 456 kts | 89° |
| 2026-05-04 18:12 | 60.06537 | -32.21476 | 35226 ft | 457 kts | 89° |
| 2026-05-04 18:12 | 60.06255 | -32.08338 | 35229 ft | 457 kts | 89° |
| 2026-05-04 18:13 | 60.05960 | -31.95241 | 35230 ft | 457 kts | 89° |
| 2026-05-04 18:14 | 60.05492 | -31.75586 | 35229 ft | 457 kts | 89° |
| 2026-05-04 18:14 | 60.05165 | -31.62501 | 35229 ft | 457 kts | 89° |
| 2026-05-04 18:15 | 60.04470 | -31.36266 | 35228 ft | 456 kts | 89° |
| 2026-05-04 18:16 | 60.04103 | -31.23127 | 35230 ft | 457 kts | 90° |
| 2026-05-04 18:16 | 60.03725 | -31.10036 | 35230 ft | 456 kts | 90° |
| 2026-05-04 18:17 | 60.03133 | -30.90399 | 35230 ft | 455 kts | 90° |
| 2026-05-04 18:18 | 60.02513 | -30.70951 | 35229 ft | 455 kts | 90° |
| 2026-05-04 18:18 | 60.02083 | -30.57921 | 35229 ft | 455 kts | 90° |
| 2026-05-04 18:19 | 60.01413 | -30.38343 | 35229 ft | 455 kts | 90° |
| 2026-05-04 18:19 | 60.00950 | -30.25297 | 35230 ft | 455 kts | 91° |
| 2026-05-04 18:20 | 60.00469 | -30.12166 | 35232 ft | 456 kts | 91° |
| 2026-05-04 18:20 | 59.99955 | -29.99160 | 35264 ft | 456 kts | 93° |
| 2026-05-04 18:21 | 59.99195 | -29.86193 | 35289 ft | 457 kts | 94° |
| 2026-05-04 18:21 | 59.98396 | -29.73185 | 35301 ft | 456 kts | 94° |
| 2026-05-04 18:22 | 59.97580 | -29.60109 | 35307 ft | 456 kts | 94° |
| 2026-05-04 18:22 | 59.96759 | -29.47155 | 35309 ft | 456 kts | 94° |
| 2026-05-04 18:23 | 59.95921 | -29.34116 | 35309 ft | 456 kts | 95° |
| 2026-05-04 18:23 | 59.95077 | -29.21177 | 35310 ft | 457 kts | 95° |
| 2026-05-04 18:24 | 59.94215 | -29.08172 | 35310 ft | 457 kts | 95° |
| 2026-05-04 18:24 | 59.93345 | -28.95237 | 35310 ft | 457 kts | 95° |
| 2026-05-04 18:25 | 59.92452 | -28.82148 | 35310 ft | 457 kts | 95° |
| 2026-05-04 18:25 | 59.91553 | -28.69203 | 35310 ft | 458 kts | 95° |
| 2026-05-04 18:26 | 59.90634 | -28.56158 | 35310 ft | 458 kts | 95° |
| 2026-05-04 18:26 | 59.89700 | -28.43098 | 35309 ft | 458 kts | 95° |
| 2026-05-04 18:27 | 59.88793 | -28.30578 | 35310 ft | 458 kts | 96° |
| 2026-05-04 18:27 | 59.87882 | -28.18144 | 35310 ft | 458 kts | 96° |
| 2026-05-04 18:28 | 59.86939 | -28.05466 | 35310 ft | 458 kts | 96° |
| 2026-05-04 18:28 | 59.85990 | -27.92884 | 35310 ft | 458 kts | 96° |
| 2026-05-04 18:29 | 59.85041 | -27.80471 | 35310 ft | 458 kts | 96° |
| 2026-05-04 18:29 | 59.84059 | -27.67776 | 35310 ft | 458 kts | 96° |
| 2026-05-04 18:30 | 59.82719 | -27.50727 | 35310 ft | 458 kts | 96° |
| 2026-05-04 18:31 | 59.81720 | -27.38206 | 35309 ft | 458 kts | 96° |
| 2026-05-04 18:31 | 59.80686 | -27.25391 | 35310 ft | 458 kts | 97° |
| 2026-05-04 18:32 | 59.79641 | -27.12588 | 35310 ft | 458 kts | 97° |
| 2026-05-04 18:32 | 59.78571 | -26.99668 | 35310 ft | 457 kts | 97° |
| 2026-05-04 18:33 | 59.77517 | -26.87089 | 35310 ft | 457 kts | 97° |
| 2026-05-04 18:33 | 59.76456 | -26.74591 | 35310 ft | 456 kts | 97° |
| 2026-05-04 18:34 | 59.75371 | -26.61957 | 35310 ft | 456 kts | 97° |
| 2026-05-04 18:34 | 59.74279 | -26.49390 | 35310 ft | 456 kts | 97° |
| 2026-05-04 18:35 | 59.73191 | -26.37002 | 35310 ft | 456 kts | 97° |
| 2026-05-04 18:35 | 59.72069 | -26.24367 | 35310 ft | 457 kts | 98° |
| 2026-05-04 18:36 | 59.70961 | -26.12023 | 35310 ft | 457 kts | 98° |
| 2026-05-04 18:36 | 59.69810 | -25.99362 | 35310 ft | 457 kts | 98° |
| 2026-05-04 18:37 | 59.68670 | -25.86951 | 35310 ft | 457 kts | 98° |
| 2026-05-04 18:37 | 59.67502 | -25.74391 | 35310 ft | 457 kts | 98° |
| 2026-05-04 18:38 | 59.66318 | -25.61791 | 35310 ft | 457 kts | 98° |
| 2026-05-04 18:38 | 59.65115 | -25.49125 | 35310 ft | 457 kts | 98° |
| 2026-05-04 18:39 | 59.63913 | -25.36603 | 35310 ft | 457 kts | 98° |
| 2026-05-04 18:39 | 59.62701 | -25.24103 | 35310 ft | 457 kts | 99° |
| 2026-05-04 18:40 | 59.61475 | -25.11565 | 35311 ft | 456 kts | 99° |
| 2026-05-04 18:40 | 59.60282 | -24.99497 | 35311 ft | 454 kts | 99° |
| 2026-05-04 18:41 | 59.59051 | -24.87192 | 35310 ft | 453 kts | 99° |
| 2026-05-04 18:41 | 59.57804 | -24.74877 | 35310 ft | 452 kts | 99° |
| 2026-05-04 18:42 | 59.56538 | -24.62485 | 35310 ft | 452 kts | 99° |
| 2026-05-04 18:42 | 59.55261 | -24.50112 | 35310 ft | 452 kts | 99° |
| 2026-05-04 18:43 | 59.53990 | -24.37908 | 35310 ft | 452 kts | 99° |
| 2026-05-04 18:43 | 59.01621 | -20.11435 | 35329 ft | 452 kts | 104° |
| 2026-05-04 18:44 | 59.00147 | -20.01502 | 35298 ft | 456 kts | 108° |
| 2026-05-04 18:44 | 58.97986 | -19.91299 | 35264 ft | 458 kts | 114° |
| 2026-05-04 18:45 | 58.95690 | -19.81972 | 35247 ft | 459 kts | 115° |
| 2026-05-04 18:45 | 58.93361 | -19.72568 | 35239 ft | 460 kts | 115° |
| 2026-05-04 18:46 | 58.90919 | -19.62724 | 35235 ft | 461 kts | 115° |
| 2026-05-04 18:46 | 58.88288 | -19.52198 | 35232 ft | 462 kts | 115° |
| 2026-05-04 18:47 | 57.28133 | -13.86385 | 35221 ft | 462 kts | 123° |
| 2026-05-04 18:47 | 57.25243 | -13.77338 | 35170 ft | 471 kts | 123° |
| 2026-05-04 18:48 | 57.22318 | -13.68246 | 35145 ft | 481 kts | 123° |
| 2026-05-04 18:48 | 57.18870 | -13.57554 | 35132 ft | 485 kts | 123° |
| 2026-05-04 18:49 | 57.15407 | -13.46855 | 35126 ft | 485 kts | 123° |
| 2026-05-04 18:49 | 57.11876 | -13.36004 | 35124 ft | 485 kts | 123° |
| 2026-05-04 18:50 | 57.08338 | -13.25168 | 35122 ft | 486 kts | 124° |
| 2026-05-04 18:50 | 57.04733 | -13.14277 | 35121 ft | 485 kts | 127° |
| 2026-05-04 18:51 | 57.00520 | -13.04358 | 35121 ft | 479 kts | 138° |
| 2026-05-04 18:51 | 56.95542 | -12.96072 | 35121 ft | 473 kts | 149° |
| 2026-05-04 18:52 | 56.89925 | -12.89487 | 35124 ft | 466 kts | 157° |
| 2026-05-04 18:52 | 56.84175 | -12.83699 | 35123 ft | 466 kts | 157° |
| 2026-05-04 18:53 | 56.78482 | -12.77431 | 35123 ft | 471 kts | 152° |
| 2026-05-04 18:53 | 56.72951 | -12.70597 | 35122 ft | 470 kts | 152° |
| 2026-05-04 18:54 | 56.67422 | -12.63826 | 35123 ft | 470 kts | 152° |
| 2026-05-04 18:54 | 56.61890 | -12.57076 | 35122 ft | 470 kts | 152° |
| 2026-05-04 18:55 | 56.56324 | -12.50304 | 35123 ft | 470 kts | 152° |
| 2026-05-04 18:55 | 56.48373 | -12.40670 | 35122 ft | 471 kts | 152° |
| 2026-05-04 18:56 | 56.42966 | -12.34148 | 35121 ft | 471 kts | 153° |
| 2026-05-04 18:56 | 56.37442 | -12.27475 | 35121 ft | 470 kts | 153° |
| 2026-05-04 18:57 | 56.31959 | -12.20886 | 35123 ft | 470 kts | 153° |
| 2026-05-04 18:57 | 56.26406 | -12.14249 | 35122 ft | 470 kts | 153° |
| 2026-05-04 18:58 | 56.20924 | -12.07727 | 35122 ft | 470 kts | 153° |
| 2026-05-04 18:58 | 56.15338 | -12.01104 | 35123 ft | 470 kts | 153° |
| 2026-05-04 18:59 | 56.09856 | -11.94631 | 35122 ft | 470 kts | 153° |
| 2026-05-04 18:59 | 56.04303 | -11.88094 | 35123 ft | 470 kts | 153° |
| 2026-05-04 19:00 | 55.98835 | -11.81680 | 35122 ft | 470 kts | 153° |
| 2026-05-04 19:00 | 55.93199 | -11.75093 | 35122 ft | 470 kts | 153° |
| 2026-05-04 19:01 | 55.87592 | -11.68569 | 35123 ft | 470 kts | 153° |
| 2026-05-04 19:01 | 55.81967 | -11.62069 | 35122 ft | 470 kts | 153° |
| 2026-05-04 19:02 | 55.76315 | -11.55545 | 35122 ft | 470 kts | 153° |
| 2026-05-04 19:02 | 55.70692 | -11.49071 | 35122 ft | 470 kts | 153° |
| 2026-05-04 19:03 | 55.65148 | -11.42704 | 35122 ft | 470 kts | 153° |
| 2026-05-04 19:03 | 55.59506 | -11.36247 | 35122 ft | 470 kts | 153° |
| 2026-05-04 19:04 | 55.53931 | -11.29866 | 35121 ft | 470 kts | 154° |
| 2026-05-04 19:04 | 55.48334 | -11.23477 | 35121 ft | 470 kts | 154° |
| 2026-05-04 19:05 | 55.42636 | -11.17012 | 35123 ft | 470 kts | 154° |
| 2026-05-04 19:05 | 55.36977 | -11.10620 | 35125 ft | 469 kts | 154° |
| 2026-05-04 19:06 | 55.31345 | -11.04282 | 35123 ft | 469 kts | 154° |
| 2026-05-04 19:06 | 55.25725 | -10.97979 | 35123 ft | 468 kts | 154° |
| 2026-05-04 19:07 | 55.20080 | -10.91669 | 35121 ft | 467 kts | 154° |
| 2026-05-04 19:07 | 55.14465 | -10.85416 | 35121 ft | 467 kts | 154° |
| 2026-05-04 19:08 | 55.08834 | -10.79167 | 35123 ft | 467 kts | 155° |
| 2026-05-04 19:08 | 55.04388 | -10.74252 | 35123 ft | 466 kts | 155° |
| 2026-05-04 19:09 | 54.99439 | -10.68780 | 35123 ft | 467 kts | 156° |
| 2026-05-04 19:09 | 54.93853 | -10.62618 | 35121 ft | 467 kts | 157° |
| 2026-05-04 19:10 | 54.88297 | -10.56532 | 35125 ft | 467 kts | 159° |
| 2026-05-04 19:10 | 54.82625 | -10.50378 | 35122 ft | 467 kts | 159° |
| 2026-05-04 19:11 | 54.77321 | -10.44633 | 35122 ft | 467 kts | 159° |
| 2026-05-04 19:11 | 54.71728 | -10.38571 | 35124 ft | 468 kts | 159° |
| 2026-05-04 19:12 | 54.63568 | -10.29730 | 35120 ft | 463 kts | 160° |
| 2026-05-04 19:13 | 54.58298 | -10.24044 | 35121 ft | 460 kts | 160° |
| 2026-05-04 19:13 | 54.52945 | -10.17938 | 35120 ft | 470 kts | 154° |
| 2026-05-04 19:13 | 54.50387 | -10.14142 | 35121 ft | 481 kts | 147° |
| 2026-05-04 19:14 | 54.48300 | -10.10373 | 35121 ft | 489 kts | 142° |
| 2026-05-04 19:14 | 54.44274 | -10.00390 | 35122 ft | 509 kts | 128° |
| 2026-05-04 19:15 | 54.41335 | -9.88819 | 35124 ft | 522 kts | 120° |
| 2026-05-04 19:15 | 54.38699 | -9.77039 | 35124 ft | 521 kts | 120° |
| 2026-05-04 19:16 | 54.36035 | -9.65338 | 35121 ft | 520 kts | 120° |
| 2026-05-04 19:16 | 54.33305 | -9.53578 | 35123 ft | 520 kts | 120° |
| 2026-05-04 19:17 | 54.30651 | -9.42248 | 35122 ft | 520 kts | 121° |
| 2026-05-04 19:17 | 54.27921 | -9.30675 | 35120 ft | 520 kts | 121° |
| 2026-05-04 19:18 | 54.25182 | -9.19080 | 35121 ft | 521 kts | 121° |
| 2026-05-04 19:18 | 54.22426 | -9.07490 | 35122 ft | 520 kts | 121° |
| 2026-05-04 19:19 | 54.19647 | -8.95873 | 35121 ft | 523 kts | 122° |
| 2026-05-04 19:19 | 54.16844 | -8.84234 | 35123 ft | 525 kts | 123° |
| 2026-05-04 19:20 | 54.14014 | -8.72569 | 35121 ft | 525 kts | 123° |
| 2026-05-04 19:20 | 54.11230 | -8.61138 | 35122 ft | 524 kts | 123° |
| 2026-05-04 19:21 | 54.08398 | -8.49572 | 35129 ft | 524 kts | 123° |
| 2026-05-04 19:21 | 54.05533 | -8.37932 | 35139 ft | 523 kts | 123° |
| 2026-05-04 19:22 | 54.03156 | -8.28302 | 35093 ft | 519 kts | 123° |
| 2026-05-04 19:22 | 54.01806 | -8.22829 | 34689 ft | 516 kts | 124° |
| 2026-05-04 19:22 | 54.00370 | -8.17038 | 33824 ft | 519 kts | 124° |
| 2026-05-04 19:22 | 53.98943 | -8.11339 | 32841 ft | 522 kts | 123° |
| 2026-05-04 19:23 | 53.97465 | -8.05455 | 31884 ft | 524 kts | 123° |
| 2026-05-04 19:23 | 53.96023 | -7.99709 | 31010 ft | 523 kts | 123° |
| 2026-05-04 19:23 | 53.94604 | -7.94066 | 30140 ft | 522 kts | 122° |
| 2026-05-04 19:23 | 53.93249 | -7.88688 | 29256 ft | 522 kts | 122° |
| 2026-05-04 19:24 | 53.91810 | -7.82989 | 28556 ft | 518 kts | 122° |
| 2026-05-04 19:24 | 53.90363 | -7.77280 | 28293 ft | 520 kts | 122° |
| 2026-05-04 19:24 | 53.88893 | -7.71516 | 28015 ft | 521 kts | 122° |
| 2026-05-04 19:24 | 53.87429 | -7.65827 | 27486 ft | 521 kts | 122° |
| 2026-05-04 19:25 | 53.85953 | -7.60099 | 26841 ft | 522 kts | 122° |
| 2026-05-04 19:25 | 53.84495 | -7.54430 | 26080 ft | 517 kts | 121° |
| 2026-05-04 19:25 | 53.83023 | -7.48709 | 25044 ft | 516 kts | 121° |
| 2026-05-04 19:25 | 53.81555 | -7.43020 | 24053 ft | 515 kts | 121° |
| 2026-05-04 19:26 | 53.80106 | -7.37404 | 23220 ft | 509 kts | 120° |
| 2026-05-04 19:26 | 53.78786 | -7.31677 | 22611 ft | 504 kts | 116° |
| 2026-05-04 19:26 | 53.77776 | -7.25895 | 22010 ft | 500 kts | 111° |
| 2026-05-04 19:26 | 53.77055 | -7.20023 | 21392 ft | 495 kts | 107° |
| 2026-05-04 19:27 | 53.76472 | -7.14293 | 20767 ft | 489 kts | 105° |
| 2026-05-04 19:27 | 53.75906 | -7.08507 | 20121 ft | 482 kts | 105° |
| 2026-05-04 19:27 | 53.75348 | -7.02856 | 19482 ft | 476 kts | 104° |
| 2026-05-04 19:27 | 53.74787 | -6.97261 | 18849 ft | 470 kts | 104° |
| 2026-05-04 19:28 | 53.74225 | -6.91753 | 18225 ft | 464 kts | 104° |
| 2026-05-04 19:28 | 53.73671 | -6.86363 | 17616 ft | 458 kts | 104° |
| 2026-05-04 19:28 | 53.73111 | -6.80952 | 17003 ft | 453 kts | 104° |
| 2026-05-04 19:28 | 53.72554 | -6.75617 | 16397 ft | 447 kts | 104° |
| 2026-05-04 19:29 | 53.72003 | -6.70377 | 15800 ft | 442 kts | 103° |
| 2026-05-04 19:29 | 53.71452 | -6.65150 | 15198 ft | 437 kts | 103° |
| 2026-05-04 19:29 | 53.70913 | -6.60050 | 14605 ft | 432 kts | 103° |
| 2026-05-04 19:29 | 53.70377 | -6.54980 | 14004 ft | 427 kts | 103° |
| 2026-05-04 19:30 | 53.69895 | -6.50433 | 13465 ft | 423 kts | 103° |
| 2026-05-04 19:30 | 53.69368 | -6.45491 | 12875 ft | 409 kts | 102° |
| 2026-05-04 19:30 | 53.68865 | -6.40803 | 12316 ft | 399 kts | 102° |
| 2026-05-04 19:30 | 53.68362 | -6.36149 | 11751 ft | 390 kts | 102° |
| 2026-05-04 19:31 | 53.67876 | -6.31651 | 11226 ft | 377 kts | 103° |
| 2026-05-04 19:31 | 53.67438 | -6.27579 | 11026 ft | 348 kts | 103° |
| 2026-05-04 19:31 | 53.67010 | -6.23655 | 10712 ft | 340 kts | 103° |
| 2026-05-04 19:31 | 53.66581 | -6.19752 | 10355 ft | 334 kts | 104° |
| 2026-05-04 19:32 | 53.66161 | -6.15927 | 10158 ft | 322 kts | 104° |
| 2026-05-04 19:32 | 53.65763 | -6.12295 | 9967 ft | 311 kts | 104° |
| 2026-05-04 19:32 | 53.65380 | -6.08832 | 9783 ft | 301 kts | 104° |
| 2026-05-04 19:32 | 53.64992 | -6.05336 | 9597 ft | 291 kts | 104° |
| 2026-05-04 19:33 | 53.64617 | -6.01976 | 9416 ft | 281 kts | 104° |
| 2026-05-04 19:33 | 53.64256 | -5.98740 | 9240 ft | 272 kts | 104° |
| 2026-05-04 19:33 | 53.63738 | -5.95669 | 8966 ft | 261 kts | 124° |
| 2026-05-04 19:33 | 53.62598 | -5.93749 | 8582 ft | 248 kts | 156° |
| 2026-05-04 19:34 | 53.60976 | -5.93007 | 8184 ft | 239 kts | 180° |
| 2026-05-04 19:34 | 53.59327 | -5.93134 | 7792 ft | 239 kts | 185° |
| 2026-05-04 19:34 | 53.57663 | -5.93338 | 7387 ft | 237 kts | 185° |
| 2026-05-04 19:34 | 53.56170 | -5.93498 | 7023 ft | 236 kts | 183° |
| 2026-05-04 19:35 | 53.55043 | -5.93602 | 6748 ft | 236 kts | 183° |
| 2026-05-04 19:35 | 53.51488 | -5.93845 | 5884 ft | 239 kts | 182° |
| 2026-05-04 19:35 | 53.49792 | -5.93948 | 5290 ft | 247 kts | 182° |
| 2026-05-04 19:36 | 53.48067 | -5.94063 | 4608 ft | 247 kts | 181° |
| 2026-05-04 19:36 | 53.46804 | -5.94137 | 4118 ft | 246 kts | 181° |
| 2026-05-04 19:36 | 53.45095 | -5.94237 | 3675 ft | 235 kts | 181° |
| 2026-05-04 19:36 | 53.43516 | -5.94328 | 3603 ft | 211 kts | 181° |
| 2026-05-04 19:37 | 53.42179 | -5.94413 | 3598 ft | 186 kts | 180° |
| 2026-05-04 19:37 | 53.40937 | -5.94573 | 3291 ft | 178 kts | 192° |
| 2026-05-04 19:37 | 53.39968 | -5.95790 | 3011 ft | 169 kts | 238° |
| 2026-05-04 19:37 | 53.39833 | -5.97733 | 3002 ft | 171 kts | 279° |
| 2026-05-04 19:38 | 53.40189 | -5.99652 | 2847 ft | 171 kts | 287° |
| 2026-05-04 19:38 | 53.40507 | -6.01448 | 2812 ft | 170 kts | 282° |
| 2026-05-04 19:38 | 53.40749 | -6.03458 | 2753 ft | 173 kts | 278° |
| 2026-05-04 19:38 | 53.40934 | -6.05386 | 2549 ft | 169 kts | 276° |
| 2026-05-04 19:39 | 53.41077 | -6.07375 | 2316 ft | 168 kts | 274° |
| 2026-05-04 19:39 | 53.41177 | -6.09357 | 2083 ft | 169 kts | 274° |
| 2026-05-04 19:39 | 53.41285 | -6.11346 | 1861 ft | 169 kts | 274° |
| 2026-05-04 19:39 | 53.41390 | -6.13274 | 1641 ft | 168 kts | 274° |
| 2026-05-04 19:40 | 53.41497 | -6.15268 | 1416 ft | 168 kts | 274° |
| 2026-05-04 19:40 | 53.41596 | -6.17125 | 1205 ft | 166 kts | 274° |
| 2026-05-04 19:40 | 53.41684 | -6.18767 | 1002 ft | 156 kts | 274° |
| 2026-05-04 19:40 | 53.41778 | -6.20487 | 785 ft | 142 kts | 275° |
| 2026-05-04 19:41 | 53.41859 | -6.21978 | 624 ft | 140 kts | 274° |
| 2026-05-04 19:41 | 53.41949 | -6.23637 | 436 ft | 139 kts | 275° |
| 2026-05-04 19:41 | 53.42037 | -6.25247 | 265 ft | 137 kts | 274° |
| 2026-05-04 19:41 | 53.42115 | -6.26688 | 251 ft | 100 kts | 275° |
| 2026-05-04 19:42 | 53.42166 | -6.27571 | 251 ft | 48 kts | 276° |
| 2026-05-04 19:42 | 53.42268 | -6.28043 | 251 ft | 17 kts | 301° |
| 2026-05-04 19:42 | 53.42334 | -6.28129 | 251 ft | 12 kts | 16° |
| 2026-05-04 19:42 | 53.42352 | -6.28018 | 251 ft | 17 kts | 78° |
| 2026-05-04 19:43 | 53.42350 | -6.27806 | 251 ft | 19 kts | 98° |
| 2026-05-04 19:43 | 53.42340 | -6.27598 | 251 ft | 20 kts | 96° |
| 2026-05-04 19:43 | 53.42327 | -6.27378 | 251 ft | 20 kts | 96° |
| 2026-05-04 19:43 | 53.42315 | -6.27137 | 251 ft | 20 kts | 97° |
| 2026-05-04 19:44 | 53.42299 | -6.26902 | 251 ft | 19 kts | 103° |
| 2026-05-04 19:44 | 53.42286 | -6.26678 | 251 ft | 20 kts | 91° |
| 2026-05-04 19:44 | 53.42278 | -6.26444 | 251 ft | 20 kts | 94° |
| 2026-05-04 19:44 | 53.42264 | -6.26230 | 251 ft | 20 kts | 95° |
| 2026-05-04 19:45 | 53.42268 | -6.26008 | 251 ft | 20 kts | 71° |
| 2026-05-04 19:45 | 53.42323 | -6.25864 | 251 ft | 20 kts | 37° |
| 2026-05-04 19:45 | 53.42424 | -6.25699 | 251 ft | 20 kts | 49° |
| 2026-05-04 19:45 | 53.42524 | -6.25520 | 251 ft | 21 kts | 45° |
| 2026-05-04 19:46 | 53.42614 | -6.25365 | 251 ft | 21 kts | 44° |
| 2026-05-04 19:46 | 53.42711 | -6.25203 | 251 ft | 17 kts | 46° |
| 2026-05-04 19:46 | 53.42773 | -6.25080 | 251 ft | 11 kts | 78° |
| 2026-05-04 19:46 | 53.42724 | -6.24987 | 251 ft | 12 kts | 147° |
| 2026-05-04 19:47 | 53.42667 | -6.24926 | 251 ft | 0 kts | 147° |
| 2026-05-04 19:47 | 53.42621 | -6.24880 | 251 ft | 22 kts | 154° |
| 2026-05-04 19:47 | 53.42520 | -6.24815 | 251 ft | 14 kts | 155° |
| 2026-05-04 19:47 | 53.42430 | -6.24738 | 251 ft | 15 kts | 134° |
| 2026-05-04 19:48 | 53.42440 | -6.24576 | 251 ft | 15 kts | 60° |
| 2026-05-04 19:48 | 53.42488 | -6.24449 | 251 ft | 0 kts | 42° |
| 2026-05-04 19:48 | 53.42500 | -6.24434 | 251 ft | 10 kts | 36° |
| 2026-05-04 19:49 | 53.42554 | -6.24390 | 251 ft | 9 kts | 7° |
| 2026-05-04 19:49 | 53.42595 | -6.24414 | 251 ft | 0 kts | 309° |
| 2026-05-04 19:49 | 53.42610 | -6.24439 | 251 ft | 4 kts | 310° |
| 2026-05-04 19:49 | 53.42622 | -6.24464 | 251 ft | 0 kts | 306° |